CYTH

Thompson Airport

Thompson, Manitoba, Canada
METAR CYTH 190931Z 35009KT 15SM -SN BKN008 BKN075 01/M00 A3005 RMK SC5AC2 SLP190
Observed Flight Rules
Sep-19 @ 09:31 UTC (13 minutes ago) Instrument Flight Rules
Wind Visibility Clouds Conditions
350° at 9 knots 15 miles
  • Broken at 800' AGL
  • Broken at 7,500' AGL
  • Light Snow
Temperatures Readings
Current 1°C / 34°F
Dewpoint 0°C / 32°F
Humidity 93%
Altimeter 30.05" Hg
Pressure 1019 hPa
Elevation 218
METAR CYTH 190931Z 35009KT 15SM -SN BKN008 BKN075 01/M00 A3005 RMK SC5AC2 SLP190
Observed Flight Rules
Sep-19 @ 09:31 UTC
(13 minutes ago)
IFR
Wind Visibility
350° at 9 knots 15 miles
Clouds
  • Broken at 800' AGL
  • Broken at 7,500' AGL
Conditions
  • Light Snow
Temperature Dewpoint
1°C / 34°F 0°C / 32°F
Humidity Altimeter Pressure
93% 30.05" Hg 1019 hPa